createdAt,value
2017-09-19T00:01:40.530Z,36.97
2017-09-19T00:03:43.403Z,36.87
2017-09-19T00:05:46.054Z,36.87
2017-09-19T00:07:48.674Z,38.47
2017-09-19T00:09:52.211Z,36.87
2017-09-19T00:11:54.875Z,36.10
2017-09-19T00:13:57.498Z,35.07
2017-09-19T00:16:00.138Z,35.90
2017-09-19T00:18:02.810Z,36.93
2017-09-19T00:20:05.538Z,35.50
2017-09-19T00:22:08.166Z,36.50
2017-09-19T00:24:10.818Z,39.07
2017-09-19T00:26:13.712Z,36.07
2017-09-19T00:28:16.396Z,37.30
2017-09-19T00:30:19.061Z,38.80
2017-09-19T00:32:21.740Z,40.17
2017-09-19T00:34:24.379Z,39.43
2017-09-19T00:36:27.042Z,39.97
2017-09-19T00:38:29.721Z,37.97
2017-09-19T00:40:32.362Z,39.37
2017-09-19T00:42:35.043Z,42.10
2017-09-19T00:44:37.684Z,43.23
2017-09-19T00:46:40.554Z,43.73
2017-09-19T00:48:44.054Z,43.23
2017-09-19T00:50:47.449Z,41.70
2017-09-19T00:52:51.013Z,43.10
2017-09-19T00:54:53.678Z,42.93
2017-09-19T00:56:56.360Z,45.73
2017-09-19T00:58:59.060Z,43.30
2017-09-19T01:01:02.486Z,41.93
2017-09-19T01:03:05.165Z,43.57
2017-09-19T01:05:07.847Z,43.60
2017-09-19T01:07:10.516Z,42.97
2017-09-19T01:09:13.225Z,45.10
2017-09-19T01:11:15.942Z,41.57
2017-09-19T01:13:19.529Z,44.07
2017-09-19T01:15:22.194Z,41.87
2017-09-19T01:17:24.846Z,41.50
2017-09-19T01:19:27.586Z,44.10
2017-09-19T01:21:30.245Z,41.00
2017-09-19T01:23:33.845Z,39.80
2017-09-19T01:25:37.306Z,37.93
2017-09-19T01:27:39.993Z,41.20
2017-09-19T01:29:42.697Z,41.60
2017-09-19T01:31:45.382Z,42.47
2017-09-19T01:33:48.172Z,43.87
2017-09-19T01:35:50.827Z,39.47
2017-09-19T01:37:54.254Z,41.77
2017-09-19T01:39:57.048Z,40.47
2017-09-19T01:41:59.674Z,39.70
2017-09-19T01:44:03.122Z,38.40
2017-09-19T01:46:05.838Z,41.40
2017-09-19T01:48:09.246Z,40.90
2017-09-19T01:50:11.906Z,37.70
2017-09-19T01:52:15.297Z,43.80
2017-09-19T01:54:18.739Z,39.20
2017-09-19T01:56:22.228Z,41.50
2017-09-19T01:58:24.854Z,41.13
2017-09-19T02:00:27.541Z,41.60
2017-09-19T02:02:31.375Z,42.03
2017-09-19T02:04:34.112Z,43.47
2017-09-19T02:06:37.584Z,43.90
2017-09-19T02:08:40.271Z,42.37
2017-09-19T02:10:42.959Z,41.13
2017-09-19T02:12:45.656Z,43.10
2017-09-19T02:14:49.273Z,40.17
2017-09-19T02:16:51.976Z,40.87
2017-09-19T02:18:54.688Z,43.07
2017-09-19T02:20:58.102Z,39.97
2017-09-19T02:23:00.902Z,41.27
2017-09-19T02:25:03.604Z,39.83
2017-09-19T02:27:06.263Z,39.83
2017-09-19T02:29:08.950Z,41.40
2017-09-19T02:31:11.666Z,41.73
2017-09-19T02:33:15.102Z,41.40
2017-09-19T02:35:17.832Z,44.47
2017-09-19T02:37:20.505Z,42.00
2017-09-19T02:39:23.435Z,40.80
2017-09-19T02:41:26.214Z,42.37
2017-09-19T02:43:28.858Z,42.83
2017-09-19T02:45:32.380Z,41.73
2017-09-19T02:47:35.047Z,41.20
2017-09-19T02:49:37.838Z,44.43
2017-09-19T02:51:40.515Z,44.27
2017-09-19T02:53:43.189Z,44.37
2017-09-19T02:55:45.910Z,44.87
2017-09-19T02:57:48.621Z,43.67
2017-09-19T02:59:52.141Z,44.93
2017-09-19T03:01:54.816Z,44.77
2017-09-19T03:03:57.568Z,43.27
2017-09-19T03:06:00.465Z,45.40
2017-09-19T03:08:03.230Z,44.37
2017-09-19T03:10:10.871Z,43.37
2017-09-19T03:12:14.449Z,44.37
2017-09-19T03:14:17.225Z,42.67
2017-09-19T03:16:19.900Z,45.00
2017-09-19T03:18:22.669Z,45.63
2017-09-19T03:20:25.349Z,44.30
2017-09-19T03:22:28.020Z,42.73
2017-09-19T03:24:30.902Z,43.93
2017-09-19T03:26:33.598Z,45.20
2017-09-19T03:28:36.254Z,45.37
2017-09-19T03:30:38.910Z,42.10
2017-09-19T03:32:42.540Z,42.53
2017-09-19T03:34:45.340Z,42.13
2017-09-19T03:36:48.023Z,42.33
2017-09-19T03:38:50.669Z,42.60
2017-09-19T03:40:53.577Z,44.60
2017-09-19T03:42:56.275Z,42.07
2017-09-19T03:44:59.115Z,45.90
2017-09-19T03:47:01.799Z,43.47
2017-09-19T03:49:04.501Z,45.83
2017-09-19T03:51:07.343Z,43.60
2017-09-19T03:53:10.086Z,46.80
2017-09-19T03:55:13.558Z,49.20
2017-09-19T03:57:16.213Z,44.40
2017-09-19T03:59:18.983Z,42.57
2017-09-19T04:01:21.699Z,42.97
2017-09-19T04:03:24.376Z,43.07
2017-09-19T04:05:27.247Z,42.60
2017-09-19T04:07:30.079Z,43.17
2017-09-19T04:09:32.791Z,43.47
2017-09-19T04:11:35.479Z,42.43
2017-09-19T04:13:38.175Z,43.50
2017-09-19T04:15:41.820Z,44.40
2017-09-19T04:17:45.425Z,40.40
2017-09-19T04:19:48.117Z,42.33
2017-09-19T04:21:51.168Z,44.60
2017-09-19T04:23:53.949Z,42.67
2017-09-19T04:25:56.918Z,44.70
2017-09-19T04:27:59.626Z,43.53
2017-09-19T04:30:04.742Z,44.30
2017-09-19T04:32:07.524Z,45.53
2017-09-19T04:34:10.174Z,50.50
2017-09-19T04:36:13.659Z,48.53
2017-09-19T04:38:16.403Z,46.73
2017-09-19T04:40:19.059Z,49.43
2017-09-19T04:42:21.872Z,48.47
2017-09-19T04:44:24.602Z,46.70
2017-09-19T04:46:28.390Z,46.63
2017-09-19T04:48:31.831Z,47.87
2017-09-19T04:50:34.608Z,47.43
2017-09-19T04:52:37.273Z,47.03
2017-09-19T04:54:39.979Z,46.10
2017-09-19T04:56:42.731Z,47.33
2017-09-19T04:58:45.437Z,48.30
2017-09-19T05:00:48.097Z,51.80
2017-09-19T05:02:51.053Z,48.07
2017-09-19T05:04:53.716Z,45.43
2017-09-19T05:06:56.417Z,44.40
2017-09-19T05:08:59.120Z,42.83
2017-09-19T05:11:01.781Z,48.80
2017-09-19T05:13:04.487Z,42.10
2017-09-19T05:15:07.178Z,42.00
2017-09-19T05:17:10.763Z,41.20
2017-09-19T05:19:13.410Z,39.80
2017-09-19T05:21:16.109Z,41.03
2017-09-19T05:23:20.376Z,47.20
2017-09-19T05:25:23.060Z,52.20
2017-09-19T05:27:25.932Z,47.70
2017-09-19T05:29:28.593Z,52.03
2017-09-19T05:31:31.274Z,52.03
2017-09-19T05:33:34.235Z,57.17
2017-09-19T05:35:37.671Z,58.70
2017-09-19T05:37:40.746Z,58.40
2017-09-19T05:39:43.448Z,57.53
2017-09-19T05:41:46.167Z,57.20
2017-09-19T05:43:49.609Z,56.77
2017-09-19T05:45:52.256Z,54.27
2017-09-19T05:47:55.128Z,63.77
2017-09-19T05:49:58.007Z,56.43
2017-09-19T05:52:01.647Z,59.73
2017-09-19T05:54:04.314Z,59.77
2017-09-19T05:56:07.006Z,58.20
2017-09-19T05:58:09.800Z,54.90
2017-09-19T06:00:12.485Z,57.30
2017-09-19T06:02:15.259Z,54.93
2017-09-19T06:04:18.168Z,57.77
2017-09-19T06:06:21.692Z,54.97
2017-09-19T06:08:24.578Z,57.00
2017-09-19T06:10:27.285Z,57.83
2017-09-19T06:12:29.971Z,60.00
2017-09-19T06:14:32.892Z,57.67
2017-09-19T06:16:35.549Z,59.77
2017-09-19T06:18:39.287Z,56.57
2017-09-19T06:20:41.972Z,56.17
2017-09-19T06:22:44.618Z,57.13
2017-09-19T06:24:48.079Z,56.30
2017-09-19T06:26:50.793Z,54.17
2017-09-19T06:28:53.539Z,56.73
2017-09-19T06:30:56.244Z,62.13
2017-09-19T06:32:59.733Z,60.30
2017-09-19T06:35:03.308Z,58.17
2017-09-19T06:37:05.969Z,57.20
2017-09-19T06:39:08.737Z,58.30
2017-09-19T06:41:11.408Z,56.47
2017-09-19T06:43:18.164Z,54.87
2017-09-19T06:45:20.997Z,57.77
2017-09-19T06:47:23.829Z,58.03
2017-09-19T06:49:26.642Z,60.43
2017-09-19T06:51:29.357Z,55.80
2017-09-19T06:53:32.050Z,55.40
2017-09-19T06:55:34.739Z,59.53
2017-09-19T06:57:37.518Z,59.20
2017-09-19T06:59:40.211Z,55.93
2017-09-19T07:01:42.883Z,55.63
2017-09-19T07:03:45.702Z,60.90
2017-09-19T07:05:49.138Z,58.90
2017-09-19T07:07:51.888Z,59.20
2017-09-19T07:09:55.355Z,60.10
2017-09-19T07:11:58.022Z,58.83
2017-09-19T07:14:00.701Z,60.83
2017-09-19T07:16:03.401Z,60.67
2017-09-19T07:18:06.844Z,58.53
2017-09-19T07:20:09.598Z,58.60
2017-09-19T07:22:12.285Z,61.23
2017-09-19T07:24:15.003Z,59.20
2017-09-19T07:26:17.669Z,56.97
2017-09-19T07:28:20.430Z,58.87
2017-09-19T07:30:23.159Z,56.70
2017-09-19T07:32:26.605Z,54.47
2017-09-19T07:34:29.373Z,58.97
2017-09-19T07:36:32.031Z,60.53
2017-09-19T07:38:34.713Z,56.07
2017-09-19T07:40:37.528Z,63.77
2017-09-19T07:42:40.177Z,56.17
2017-09-19T07:44:42.943Z,61.83
2017-09-19T07:46:45.724Z,57.77
2017-09-19T07:48:48.505Z,56.57
2017-09-19T07:50:51.285Z,53.00
2017-09-19T07:52:54.020Z,56.40
2017-09-19T07:54:57.439Z,53.30
2017-09-19T07:57:00.928Z,55.03
2017-09-19T07:59:03.726Z,54.27
2017-09-19T08:01:06.454Z,57.60
2017-09-19T08:03:09.119Z,55.20
2017-09-19T08:05:13.583Z,51.47
2017-09-19T08:07:16.245Z,52.00
2017-09-19T08:09:19.778Z,45.73
2017-09-19T08:11:22.549Z,45.57
2017-09-19T08:13:25.220Z,45.43
2017-09-19T08:15:27.891Z,45.63
2017-09-19T08:17:30.638Z,46.20
2017-09-19T08:19:34.177Z,45.83
2017-09-19T08:21:36.862Z,43.30
2017-09-19T08:23:39.629Z,41.80
2017-09-19T08:25:42.291Z,42.43
2017-09-19T08:27:45.521Z,43.67
2017-09-19T08:29:48.376Z,42.80
2017-09-19T08:31:51.058Z,40.00
2017-09-19T08:33:54.059Z,40.70
2017-09-19T08:35:56.809Z,38.73
2017-09-19T08:37:59.479Z,41.27
2017-09-19T08:40:02.137Z,41.57
2017-09-19T08:42:04.925Z,43.30
2017-09-19T08:44:08.644Z,43.73
2017-09-19T08:46:11.522Z,39.67
2017-09-19T08:48:14.234Z,37.50
2017-09-19T08:50:17.838Z,39.23
2017-09-19T08:52:20.763Z,40.47
2017-09-19T08:54:23.465Z,41.27
2017-09-19T08:56:26.244Z,40.70
2017-09-19T08:58:28.898Z,43.23
2017-09-19T09:00:31.620Z,40.87
2017-09-19T09:02:34.343Z,39.53
2017-09-19T09:04:37.862Z,38.67
2017-09-19T09:06:40.758Z,42.70
2017-09-19T09:08:43.417Z,42.57
2017-09-19T09:10:46.196Z,44.43
2017-09-19T09:12:49.092Z,45.93
2017-09-19T09:14:51.776Z,53.93
2017-09-19T09:16:54.528Z,42.33
2017-09-19T09:18:57.232Z,41.00
2017-09-19T09:20:59.889Z,35.93
2017-09-19T09:23:02.623Z,39.07
2017-09-19T09:25:06.326Z,39.80
2017-09-19T09:27:09.856Z,36.87
2017-09-19T09:29:12.523Z,37.20
2017-09-19T09:31:15.263Z,36.83
2017-09-19T09:33:18.191Z,37.33
2017-09-19T09:35:20.871Z,37.20
2017-09-19T09:37:23.552Z,34.60
2017-09-19T09:39:26.257Z,42.53
2017-09-19T09:41:28.919Z,39.10
2017-09-19T09:43:31.615Z,34.63
2017-09-19T09:45:34.286Z,46.80
2017-09-19T09:47:36.945Z,39.90
2017-09-19T09:49:39.707Z,52.90
2017-09-19T09:51:42.387Z,51.33
2017-09-19T09:53:45.097Z,45.10
2017-09-19T09:55:47.873Z,35.20
2017-09-19T09:57:50.624Z,32.60
2017-09-19T09:59:53.335Z,35.80
2017-09-19T10:01:56.017Z,33.80
2017-09-19T10:03:58.768Z,33.37
2017-09-19T10:06:02.241Z,32.53
2017-09-19T10:08:05.016Z,35.80
2017-09-19T10:10:08.078Z,34.47
2017-09-19T10:12:10.879Z,33.27
2017-09-19T10:14:13.567Z,35.90
2017-09-19T10:16:16.335Z,33.07
2017-09-19T10:18:18.982Z,33.17
2017-09-19T10:20:22.531Z,35.43
2017-09-19T10:22:25.189Z,32.27
2017-09-19T10:24:27.960Z,37.60
2017-09-19T10:26:30.641Z,34.07
2017-09-19T10:28:33.311Z,30.03
2017-09-19T10:30:36.096Z,29.83
2017-09-19T10:32:38.784Z,31.07
2017-09-19T10:34:41.451Z,27.67
2017-09-19T10:36:44.205Z,35.00
2017-09-19T10:38:47.975Z,27.43
2017-09-19T10:40:50.823Z,34.73
2017-09-19T10:42:53.679Z,29.90
2017-09-19T10:44:56.522Z,30.40
2017-09-19T10:46:59.279Z,29.67
2017-09-19T10:49:01.965Z,28.40
2017-09-19T10:51:04.660Z,28.60
2017-09-19T10:53:08.295Z,28.40
2017-09-19T10:55:10.952Z,28.60
2017-09-19T10:57:13.681Z,26.97
2017-09-19T10:59:16.391Z,25.70
2017-09-19T11:01:20.117Z,29.03
2017-09-19T11:03:22.899Z,30.20
2017-09-19T11:05:25.569Z,28.90
2017-09-19T11:07:28.300Z,27.77
2017-09-19T11:09:30.973Z,28.57
2017-09-19T11:11:33.761Z,28.70
2017-09-19T11:13:36.476Z,25.20
2017-09-19T11:15:39.161Z,24.13
2017-09-19T11:17:41.859Z,24.50
2017-09-19T11:19:44.611Z,26.50
2017-09-19T11:21:47.397Z,26.10
2017-09-19T11:23:50.124Z,27.00
2017-09-19T11:25:52.855Z,27.30
2017-09-19T11:27:55.556Z,25.60
2017-09-19T11:29:58.348Z,25.00
2017-09-19T11:32:01.025Z,25.40
2017-09-19T11:34:04.487Z,25.80
2017-09-19T11:36:07.205Z,25.60
2017-09-19T11:38:09.875Z,27.10
2017-09-19T11:40:12.923Z,25.43
2017-09-19T11:42:15.803Z,25.13
2017-09-19T11:44:18.585Z,26.57
2017-09-19T11:46:21.320Z,25.53
2017-09-19T11:48:24.309Z,25.10
2017-09-19T11:50:27.839Z,26.03
2017-09-19T11:52:30.525Z,23.30
2017-09-19T11:54:33.402Z,21.87
2017-09-19T11:56:36.110Z,25.37
2017-09-19T11:58:38.816Z,24.17
2017-09-19T12:00:42.394Z,24.00
2017-09-19T12:02:45.152Z,25.17
2017-09-19T12:04:47.848Z,24.77
2017-09-19T12:06:50.685Z,24.40
2017-09-19T12:08:53.329Z,23.53
2017-09-19T12:10:56.808Z,23.23
2017-09-19T12:12:59.473Z,24.27
2017-09-19T12:15:02.143Z,23.90
2017-09-19T12:17:04.989Z,24.90
2017-09-19T12:19:07.655Z,21.87
2017-09-19T12:21:10.465Z,23.40
2017-09-19T12:23:13.218Z,23.20
2017-09-19T12:25:15.877Z,24.53
2017-09-19T12:27:18.773Z,25.67
2017-09-19T12:29:21.437Z,23.90
2017-09-19T12:31:24.363Z,23.23
2017-09-19T12:33:27.573Z,23.30
2017-09-19T12:35:31.025Z,24.97
2017-09-19T12:37:33.729Z,23.20
2017-09-19T12:39:36.373Z,22.63
2017-09-19T12:41:39.049Z,23.37
2017-09-19T12:43:41.755Z,22.97
2017-09-19T12:45:44.617Z,22.27
2017-09-19T12:47:47.325Z,22.53
2017-09-19T12:49:50.055Z,22.63
2017-09-19T12:51:52.718Z,22.60
2017-09-19T12:53:55.527Z,24.80
2017-09-19T12:55:58.235Z,22.60
2017-09-19T12:58:00.903Z,22.77
2017-09-19T13:00:04.466Z,39.13
2017-09-19T13:02:07.118Z,24.73
2017-09-19T13:04:09.837Z,21.70
2017-09-19T13:06:12.588Z,21.93
2017-09-19T13:08:15.284Z,18.10
2017-09-19T13:10:18.050Z,16.80
2017-09-19T13:12:20.741Z,17.50
2017-09-19T13:14:23.451Z,15.13
2017-09-19T13:16:26.931Z,17.43
2017-09-19T13:18:29.669Z,18.20
2017-09-19T13:20:32.566Z,16.80
2017-09-19T13:22:35.328Z,16.67
2017-09-19T13:24:38.009Z,16.43
2017-09-19T13:26:40.816Z,17.50
2017-09-19T13:28:43.527Z,17.90
2017-09-19T13:30:52.980Z,17.67
2017-09-19T13:33:07.588Z,17.90
2017-09-19T13:35:10.380Z,18.53
2017-09-19T13:37:13.061Z,19.73
2017-09-19T13:39:15.746Z,20.50
2017-09-19T13:41:19.204Z,20.53
2017-09-19T13:43:21.854Z,18.87
2017-09-19T13:45:24.948Z,19.47
2017-09-19T13:47:27.630Z,19.27
2017-09-19T13:49:30.383Z,20.20
2017-09-19T13:51:33.059Z,22.00
2017-09-19T13:53:35.770Z,20.63
2017-09-19T13:55:38.524Z,20.90
2017-09-19T13:57:41.201Z,20.40
2017-09-19T13:59:43.852Z,20.27
2017-09-19T14:01:47.325Z,18.97
2017-09-19T14:03:49.992Z,18.90
2017-09-19T14:05:54.000Z,18.97
2017-09-19T14:07:56.668Z,19.00
2017-09-19T14:09:59.354Z,20.17
2017-09-19T14:12:02.006Z,17.17
2017-09-19T14:14:04.700Z,20.30
2017-09-19T14:16:07.486Z,20.33
2017-09-19T14:18:10.183Z,21.30
2017-09-19T14:20:13.669Z,21.60
2017-09-19T14:22:17.111Z,19.00
2017-09-19T14:24:19.765Z,20.57
2017-09-19T14:26:22.491Z,20.23
2017-09-19T14:28:25.234Z,19.13
2017-09-19T14:30:27.921Z,22.73
2017-09-19T14:32:30.628Z,22.00
2017-09-19T14:34:33.281Z,21.20
2017-09-19T14:36:36.027Z,22.73
2017-09-19T14:38:38.810Z,20.60
2017-09-19T14:40:41.471Z,22.37
2017-09-19T14:42:44.273Z,21.40
2017-09-19T14:44:47.002Z,23.00
2017-09-19T14:46:49.829Z,22.40
2017-09-19T14:48:52.600Z,22.23
2017-09-19T14:50:55.339Z,23.80
2017-09-19T14:52:57.995Z,20.70
2017-09-19T14:55:00.657Z,24.23
2017-09-19T14:57:03.359Z,24.00
2017-09-19T14:59:06.090Z,21.37
2017-09-19T15:01:08.830Z,19.83
2017-09-19T15:03:11.526Z,26.67
2017-09-19T15:05:14.966Z,19.00
2017-09-19T15:07:17.874Z,20.03
2017-09-19T15:09:20.674Z,21.87
2017-09-19T15:11:23.382Z,19.13
2017-09-19T15:13:26.061Z,19.27
2017-09-19T15:15:28.814Z,24.60
2017-09-19T15:17:31.482Z,22.70
2017-09-19T15:19:34.949Z,23.40
2017-09-19T15:21:37.684Z,21.83
2017-09-19T15:23:40.361Z,22.13
2017-09-19T15:25:43.111Z,22.43
2017-09-19T15:27:46.570Z,23.53
2017-09-19T15:29:49.295Z,22.17
2017-09-19T15:31:52.076Z,22.07
2017-09-19T15:33:54.792Z,20.10
2017-09-19T15:35:57.512Z,23.17
2017-09-19T15:38:00.968Z,23.80
2017-09-19T15:40:03.669Z,22.00
2017-09-19T15:42:06.487Z,21.70
2017-09-19T15:44:09.175Z,23.00
2017-09-19T15:46:11.895Z,22.33
2017-09-19T15:48:14.585Z,21.63
2017-09-19T15:50:17.329Z,21.00
2017-09-19T15:52:20.105Z,22.20
2017-09-19T15:54:22.778Z,22.10
2017-09-19T15:56:25.452Z,20.57
2017-09-19T15:58:28.338Z,19.60
2017-09-19T16:00:31.007Z,20.00
2017-09-19T16:02:34.499Z,19.80
2017-09-19T16:04:37.162Z,20.43
2017-09-19T16:06:39.835Z,19.47
2017-09-19T16:08:42.545Z,20.70
2017-09-19T16:10:45.210Z,21.80
2017-09-19T16:12:48.017Z,21.60
2017-09-19T16:14:50.752Z,22.50
2017-09-19T16:16:53.400Z,21.27
2017-09-19T16:18:56.248Z,19.93
2017-09-19T16:20:58.935Z,22.37
2017-09-19T16:23:02.548Z,21.03
2017-09-19T16:25:06.035Z,20.93
2017-09-19T16:27:09.501Z,22.67
2017-09-19T16:29:12.158Z,21.27
2017-09-19T16:31:14.833Z,23.03
2017-09-19T16:33:17.577Z,25.07
2017-09-19T16:35:20.268Z,23.03
2017-09-19T16:37:22.955Z,22.87
2017-09-19T16:39:25.675Z,22.97
2017-09-19T16:41:29.219Z,23.90
2017-09-19T16:43:31.976Z,24.40
2017-09-19T16:45:34.663Z,23.90
2017-09-19T16:47:37.455Z,24.70
2017-09-19T16:49:40.168Z,23.70
2017-09-19T16:51:42.859Z,22.87
2017-09-19T16:53:45.586Z,23.50
2017-09-19T16:55:48.261Z,24.60
2017-09-19T16:57:50.920Z,24.93
2017-09-19T16:59:53.741Z,26.80
2017-09-19T17:01:56.521Z,26.00
2017-09-19T17:03:59.255Z,27.17
2017-09-19T17:06:02.049Z,29.83
2017-09-19T17:08:05.292Z,28.40
2017-09-19T17:10:08.312Z,27.40
2017-09-19T17:12:11.168Z,27.73
2017-09-19T17:14:14.600Z,27.70
2017-09-19T17:16:17.570Z,27.70
2017-09-19T17:18:20.294Z,28.00
2017-09-19T17:20:23.853Z,27.00
2017-09-19T17:22:27.763Z,31.43
2017-09-19T17:24:30.525Z,27.53
2017-09-19T17:26:33.659Z,31.40
2017-09-19T17:28:37.186Z,29.60
2017-09-19T17:30:43.320Z,31.50
2017-09-19T17:32:49.619Z,28.93
2017-09-19T17:34:53.017Z,28.70
2017-09-19T17:36:56.832Z,28.73
2017-09-19T17:38:59.926Z,28.47
2017-09-19T17:41:04.473Z,26.93
2017-09-19T17:43:07.905Z,29.43
2017-09-19T17:45:11.444Z,30.20
2017-09-19T17:47:14.292Z,26.20
2017-09-19T17:49:17.100Z,28.30
2017-09-19T17:51:19.777Z,29.17
2017-09-19T17:53:22.523Z,28.70
2017-09-19T17:55:25.219Z,28.53
2017-09-19T17:57:27.896Z,29.87
2017-09-19T17:59:31.940Z,29.70
2017-09-19T18:01:36.164Z,29.30
2017-09-19T18:03:39.299Z,31.87
2017-09-19T18:05:42.050Z,29.87
2017-09-19T18:07:45.561Z,31.80
2017-09-19T18:09:48.307Z,38.87
2017-09-19T18:11:51.002Z,40.37
2017-09-19T18:13:54.526Z,39.50
2017-09-19T18:15:57.183Z,41.30
2017-09-19T18:18:00.830Z,40.50
2017-09-19T18:20:03.501Z,44.30
2017-09-19T18:22:06.253Z,40.83
2017-09-19T18:24:09.040Z,39.53
2017-09-19T18:26:11.793Z,36.90
2017-09-19T18:28:15.252Z,37.10
2017-09-19T18:30:17.957Z,35.43
2017-09-19T18:32:21.489Z,35.03
2017-09-19T18:34:24.199Z,34.00
2017-09-19T18:36:26.943Z,34.20
2017-09-19T18:38:29.855Z,33.10
2017-09-19T18:40:32.530Z,33.03
2017-09-19T18:42:35.269Z,33.70
2017-09-19T18:44:37.935Z,32.47
2017-09-19T18:46:40.644Z,31.33
2017-09-19T18:48:43.358Z,31.70
2017-09-19T18:50:46.177Z,30.90
2017-09-19T18:52:48.932Z,30.37
2017-09-19T18:54:52.368Z,30.60
2017-09-19T18:56:55.795Z,31.00
2017-09-19T18:58:58.674Z,31.90
2017-09-19T19:01:01.333Z,31.23
2017-09-19T19:03:04.003Z,30.63
2017-09-19T19:05:06.749Z,30.83
2017-09-19T19:07:09.402Z,33.73
2017-09-19T19:09:12.895Z,30.40
2017-09-19T19:11:16.372Z,33.27
2017-09-19T19:13:19.182Z,31.63
2017-09-19T19:15:21.865Z,32.40
2017-09-19T19:17:24.559Z,32.30
2017-09-19T19:19:27.245Z,31.40
2017-09-19T19:21:29.901Z,32.03
2017-09-19T19:23:34.109Z,30.80
2017-09-19T19:25:36.831Z,30.83
2017-09-19T19:27:39.568Z,31.50
2017-09-19T19:29:42.320Z,31.53
2017-09-19T19:31:45.744Z,32.00
2017-09-19T19:33:48.512Z,33.30
2017-09-19T19:35:51.194Z,32.37
2017-09-19T19:37:53.870Z,31.93
2017-09-19T19:39:56.558Z,34.90
2017-09-19T19:41:59.231Z,32.23
2017-09-19T19:44:01.901Z,38.30
2017-09-19T19:46:04.601Z,36.30
2017-09-19T19:48:07.273Z,38.10
2017-09-19T19:50:09.993Z,38.57
2017-09-19T19:52:13.552Z,37.30
2017-09-19T19:54:16.252Z,36.83
2017-09-19T19:56:18.950Z,38.80
2017-09-19T19:58:22.507Z,37.97
2017-09-19T20:00:25.283Z,35.83
2017-09-19T20:02:28.122Z,35.33
2017-09-19T20:04:30.934Z,36.90
2017-09-19T20:06:33.724Z,38.23
2017-09-19T20:08:36.473Z,35.33
2017-09-19T20:10:39.252Z,38.83
2017-09-19T20:12:41.965Z,36.40
2017-09-19T20:14:44.806Z,37.90
2017-09-19T20:16:47.628Z,37.90
2017-09-19T20:18:50.308Z,37.93
2017-09-19T20:20:53.613Z,39.73
2017-09-19T20:22:56.446Z,37.63
2017-09-19T20:24:59.152Z,39.13
2017-09-19T20:27:01.814Z,40.40
2017-09-19T20:29:04.597Z,40.93
2017-09-19T20:31:07.273Z,39.93
2017-09-19T20:33:10.032Z,39.17
2017-09-19T20:35:12.727Z,42.10
2017-09-19T20:37:15.409Z,41.70
2017-09-19T20:39:18.215Z,41.27
2017-09-19T20:41:21.685Z,42.40
2017-09-19T20:43:24.355Z,44.50
2017-09-19T20:45:27.101Z,46.40
2017-09-19T20:47:29.760Z,45.80
2017-09-19T20:49:32.451Z,46.57
2017-09-19T20:51:35.228Z,45.93
2017-09-19T20:53:38.010Z,43.80
2017-09-19T20:55:40.799Z,44.83
2017-09-19T20:57:43.490Z,43.17
2017-09-19T20:59:46.282Z,43.50
2017-09-19T21:01:49.117Z,44.33
2017-09-19T21:03:58.224Z,44.20
2017-09-19T21:06:07.042Z,45.17
2017-09-19T21:08:16.322Z,46.07
2017-09-19T21:10:24.711Z,43.30
2017-09-19T21:12:33.205Z,42.90
2017-09-19T21:14:41.677Z,44.10
2017-09-19T21:16:50.065Z,43.30
2017-09-19T21:18:58.455Z,45.47
2017-09-19T21:21:01.192Z,47.53
2017-09-19T21:23:04.629Z,47.90
2017-09-19T21:25:07.328Z,46.37
2017-09-19T21:27:10.111Z,46.70
2017-09-19T21:29:12.860Z,50.90
2017-09-19T21:31:15.645Z,48.93
2017-09-19T21:33:18.315Z,49.37
2017-09-19T21:35:21.170Z,48.40
2017-09-19T21:37:24.593Z,49.40
2017-09-19T21:39:27.249Z,51.23
2017-09-19T21:41:30.026Z,52.27
2017-09-19T21:43:32.768Z,53.73
2017-09-19T21:45:35.511Z,50.80
2017-09-19T21:47:38.340Z,50.20
2017-09-19T21:49:41.756Z,50.70
2017-09-19T21:51:44.561Z,53.27
2017-09-19T21:53:47.276Z,53.77
2017-09-19T21:55:49.935Z,53.30
2017-09-19T21:57:52.716Z,53.50
2017-09-19T21:59:55.403Z,52.03
2017-09-19T22:01:58.064Z,53.40
2017-09-19T22:04:00.742Z,52.17
2017-09-19T22:06:03.449Z,54.17
2017-09-19T22:08:06.925Z,51.93
2017-09-19T22:10:09.598Z,52.13
2017-09-19T22:12:12.291Z,52.97
2017-09-19T22:14:15.029Z,49.07
2017-09-19T22:16:17.705Z,50.73
2017-09-19T22:18:20.494Z,51.40
2017-09-19T22:20:23.245Z,48.30
2017-09-19T22:22:25.929Z,49.27
2017-09-19T22:24:28.699Z,45.70
2017-09-19T22:26:31.372Z,46.90
2017-09-19T22:28:34.152Z,50.00
2017-09-19T22:30:36.932Z,47.63
2017-09-19T22:32:39.606Z,45.67
2017-09-19T22:34:42.312Z,47.20
2017-09-19T22:36:45.750Z,45.67
2017-09-19T22:38:49.188Z,46.93
2017-09-19T22:40:51.988Z,46.30
2017-09-19T22:42:54.955Z,47.47
2017-09-19T22:44:57.620Z,45.67
2017-09-19T22:47:00.270Z,44.37
2017-09-19T22:49:02.946Z,44.20
2017-09-19T22:51:05.742Z,42.30
2017-09-19T22:53:08.416Z,44.30
2017-09-19T22:55:11.117Z,43.10
2017-09-19T22:57:13.830Z,42.60
2017-09-19T22:59:17.271Z,44.13
2017-09-19T23:01:19.975Z,45.27
2017-09-19T23:03:22.637Z,43.97
2017-09-19T23:05:26.103Z,41.97
2017-09-19T23:07:28.828Z,42.80
2017-09-19T23:09:31.498Z,49.00
2017-09-19T23:11:34.233Z,45.23
2017-09-19T23:13:36.917Z,45.30
2017-09-19T23:15:39.618Z,47.30
2017-09-19T23:17:42.377Z,49.67
2017-09-19T23:19:45.048Z,46.30
2017-09-19T23:21:47.756Z,47.83
2017-09-19T23:23:50.497Z,50.30
2017-09-19T23:25:53.166Z,49.57
2017-09-19T23:27:55.843Z,49.20
2017-09-19T23:29:58.591Z,47.23
2017-09-19T23:32:01.297Z,49.80
2017-09-19T23:34:04.087Z,49.40
2017-09-19T23:36:06.791Z,47.87
2017-09-19T23:38:09.494Z,47.90
2017-09-19T23:40:12.240Z,48.03
2017-09-19T23:42:14.916Z,48.83
2017-09-19T23:44:17.786Z,45.30
2017-09-19T23:46:20.444Z,45.27
2017-09-19T23:48:23.127Z,45.60
2017-09-19T23:50:25.958Z,45.70
2017-09-19T23:52:28.636Z,41.87
2017-09-19T23:54:31.285Z,43.00
2017-09-19T23:56:34.002Z,43.87
2017-09-19T23:58:36.716Z,42.17
